createdAt,value
2022-10-01T00:02:53.364Z,98715.67
2022-10-01T00:06:09.300Z,98718.55
2022-10-01T00:09:15.174Z,98717.98
2022-10-01T00:12:21.043Z,98718.61
2022-10-01T00:15:27.661Z,98712.22
2022-10-01T00:18:33.503Z,98718.10
2022-10-01T00:21:39.365Z,98717.73
2022-10-01T00:24:45.359Z,98718.30
2022-10-01T00:27:51.282Z,98715.28
2022-10-01T00:30:57.207Z,98704.55
2022-10-01T00:34:04.518Z,98702.16
2022-10-01T00:37:10.839Z,98702.75
2022-10-01T00:40:16.771Z,98704.52
2022-10-01T00:43:25.824Z,98698.06
2022-10-01T00:46:38.982Z,98694.35
2022-10-01T00:49:47.387Z,98689.85
2022-10-01T00:52:58.130Z,98687.04
2022-10-01T00:56:04.669Z,98680.65
2022-10-01T00:59:11.659Z,98683.00
2022-10-01T01:02:17.558Z,98676.05
2022-10-01T01:05:24.482Z,98672.66
2022-10-01T01:08:30.598Z,98668.81
2022-10-01T01:11:40.646Z,98665.33
2022-10-01T01:14:54.587Z,98670.79
2022-10-01T01:18:09.453Z,98664.21
2022-10-01T01:21:33.803Z,98662.75
2022-10-01T01:24:53.065Z,98669.30
2022-10-01T01:28:13.786Z,98666.43
2022-10-01T01:31:25.360Z,98676.99
2022-10-01T01:34:33.979Z,98682.71
2022-10-01T01:37:46.067Z,98691.64
2022-10-01T01:40:55.977Z,98692.64
2022-10-01T01:44:07.028Z,98697.34
2022-10-01T01:47:14.570Z,98697.66
2022-10-01T01:50:21.215Z,98691.81
2022-10-01T01:53:27.559Z,98697.09
2022-10-01T01:56:35.882Z,98696.16
2022-10-01T01:59:43.382Z,98690.32
2022-10-01T02:02:53.772Z,98695.64
2022-10-01T02:06:13.534Z,98704.16
2022-10-01T02:09:28.576Z,98706.73
2022-10-01T02:12:50.091Z,98706.80
2022-10-01T02:16:06.485Z,98706.13
2022-10-01T02:19:23.341Z,98704.36
2022-10-01T02:22:41.252Z,98696.23
2022-10-01T02:25:52.408Z,98704.05
2022-10-01T02:29:04.749Z,98710.47
2022-10-01T02:32:12.537Z,98706.41
2022-10-01T02:35:20.522Z,98710.70
2022-10-01T02:38:27.449Z,98710.99
2022-10-01T02:41:37.410Z,98698.41
2022-10-01T02:44:45.967Z,98695.64
2022-10-01T02:47:55.874Z,98703.15
2022-10-01T02:51:16.567Z,98707.21
2022-10-01T02:54:28.636Z,98715.06
2022-10-01T02:57:34.910Z,98716.02
2022-10-01T03:00:40.769Z,98715.48
2022-10-01T03:03:46.629Z,98705.73
2022-10-01T03:06:52.486Z,98701.36
2022-10-01T03:09:58.986Z,98702.55
2022-10-01T03:13:06.263Z,98701.84
2022-10-01T03:16:12.176Z,98702.69
2022-10-01T03:19:18.343Z,98704.87
2022-10-01T03:22:24.975Z,98704.56
2022-10-01T03:25:30.821Z,98703.10
2022-10-01T03:28:36.659Z,98701.63
2022-10-01T03:31:42.600Z,98702.66
2022-10-01T03:34:48.806Z,98703.20
2022-10-01T03:37:53.141Z,98702.48
2022-10-01T03:40:59.091Z,98702.84
2022-10-01T03:44:05.108Z,98700.31
2022-10-01T03:47:11.036Z,98701.58
2022-10-01T03:50:17.082Z,98703.72
2022-10-01T03:53:23.015Z,98707.23
2022-10-01T03:56:29.269Z,98707.77
2022-10-01T03:59:36.178Z,98701.19
2022-10-01T04:02:42.130Z,98700.59
2022-10-01T04:05:48.642Z,98697.70
2022-10-01T04:08:54.503Z,98694.20
2022-10-01T04:12:00.551Z,98695.59
2022-10-01T04:15:07.134Z,98697.27
2022-10-01T04:18:13.319Z,98692.40
2022-10-01T04:21:17.535Z,98693.25
2022-10-01T04:24:23.406Z,98690.59
2022-10-01T04:27:29.270Z,98692.15
2022-10-01T04:30:37.858Z,98691.06
2022-10-01T04:33:44.003Z,98697.83
2022-10-01T04:36:48.212Z,98701.52
2022-10-01T04:39:54.446Z,98698.65
2022-10-01T04:43:00.515Z,98699.76
2022-10-01T04:46:06.480Z,98701.37
2022-10-01T04:49:12.341Z,98706.67
2022-10-01T04:52:18.230Z,98708.40
2022-10-01T04:55:24.635Z,98708.19
2022-10-01T04:58:31.579Z,98708.79
2022-10-01T05:01:37.972Z,98700.50
2022-10-01T05:04:44.299Z,98701.38
2022-10-01T05:07:51.210Z,98702.31
2022-10-01T05:10:57.059Z,98697.42
2022-10-01T05:14:03.105Z,98695.80
2022-10-01T05:17:09.274Z,98696.15
2022-10-01T05:20:16.929Z,98698.85
2022-10-01T05:23:22.769Z,98696.61
2022-10-01T05:26:29.753Z,98700.04
2022-10-01T05:29:35.615Z,98702.68
2022-10-01T05:32:41.990Z,98712.57
2022-10-01T05:35:47.987Z,98718.79
2022-10-01T05:38:53.835Z,98724.39
2022-10-01T05:42:05.361Z,98723.59
2022-10-01T05:45:13.498Z,98721.09
2022-10-01T05:48:19.347Z,98719.09
2022-10-01T05:51:25.323Z,98714.23
2022-10-01T05:54:31.738Z,98706.79
2022-10-01T05:57:37.654Z,98704.45
2022-10-01T06:00:44.250Z,98702.13
2022-10-01T06:03:53.698Z,98703.73
2022-10-01T06:06:59.660Z,98712.57
2022-10-01T06:10:06.521Z,98716.08
2022-10-01T06:13:17.983Z,98714.98
2022-10-01T06:16:24.014Z,98704.56
2022-10-01T06:19:29.937Z,98701.21
2022-10-01T06:22:35.850Z,98696.41
2022-10-01T06:25:42.935Z,98691.39
2022-10-01T06:28:52.780Z,98688.41
2022-10-01T06:31:58.645Z,98689.95
2022-10-01T06:35:04.919Z,98693.42
2022-10-01T06:38:11.038Z,98695.36
2022-10-01T06:41:15.233Z,98692.31
2022-10-01T06:44:21.045Z,98693.20
2022-10-01T06:47:26.982Z,98695.05
2022-10-01T06:50:34.007Z,98692.70
2022-10-01T06:53:39.966Z,98691.63
2022-10-01T06:56:45.829Z,98691.92
2022-10-01T06:59:52.222Z,98696.59
2022-10-01T07:02:58.841Z,98695.59
2022-10-01T07:06:11.143Z,98686.29
2022-10-01T07:09:17.014Z,98683.27
2022-10-01T07:12:23.139Z,98686.95
2022-10-01T07:15:27.366Z,98677.96
2022-10-01T07:18:33.201Z,98671.09
2022-10-01T07:21:39.065Z,98670.00
2022-10-01T07:24:44.910Z,98670.98
2022-10-01T07:27:50.798Z,98666.54
2022-10-01T07:31:05.204Z,98664.49
2022-10-01T07:34:11.050Z,98660.00
2022-10-01T07:37:16.959Z,98655.44
2022-10-01T07:40:22.838Z,98658.45
2022-10-01T07:43:28.690Z,98650.38
2022-10-01T07:46:34.942Z,98644.80
2022-10-01T07:49:40.855Z,98643.12
2022-10-01T07:52:46.685Z,98638.33
2022-10-01T07:55:52.551Z,98638.25
2022-10-01T07:58:59.506Z,98639.80
2022-10-01T08:02:05.431Z,98639.45
2022-10-01T08:05:22.043Z,98640.21
2022-10-01T08:08:28.014Z,98641.45
2022-10-01T08:11:34.604Z,98640.26
2022-10-01T08:14:40.730Z,98636.86
2022-10-01T08:17:47.067Z,98634.62
2022-10-01T08:20:53.249Z,98634.24
2022-10-01T08:23:59.125Z,98633.45
2022-10-01T08:27:05.091Z,98631.47
2022-10-01T08:30:12.622Z,98626.73
2022-10-01T08:33:18.578Z,98621.98
2022-10-01T08:36:24.432Z,98621.63
2022-10-01T08:39:30.275Z,98611.73
2022-10-01T08:43:00.187Z,98610.82
2022-10-01T08:46:09.447Z,98603.10
2022-10-01T08:49:22.443Z,98599.96
2022-10-01T08:52:31.184Z,98591.42
2022-10-01T08:55:38.064Z,98594.85
2022-10-01T08:58:54.731Z,98589.97
2022-10-01T09:02:00.912Z,98582.61
2022-10-01T09:05:09.333Z,98578.48
2022-10-01T09:08:25.458Z,98577.50
2022-10-01T09:11:45.776Z,98576.65
2022-10-01T09:15:05.679Z,98575.20
2022-10-01T09:18:23.095Z,98563.81
2022-10-01T09:21:42.335Z,98563.52
2022-10-01T09:24:53.359Z,98564.59
2022-10-01T09:28:08.455Z,98564.77
2022-10-01T09:31:22.964Z,98555.52
2022-10-01T09:34:35.300Z,98555.58
2022-10-01T09:37:48.338Z,98559.70
2022-10-01T09:40:57.012Z,98556.96
2022-10-01T09:44:03.190Z,98558.97
2022-10-01T09:47:19.404Z,98559.95
2022-10-01T09:50:35.122Z,98553.78
2022-10-01T09:53:46.310Z,98553.27
2022-10-01T09:56:56.378Z,98549.61
2022-10-01T10:00:10.165Z,98551.70
2022-10-01T10:03:26.765Z,98552.06
2022-10-01T10:06:34.357Z,98546.65
2022-10-01T10:09:41.565Z,98542.10
2022-10-01T10:12:49.321Z,98540.15
2022-10-01T10:15:57.829Z,98535.38
2022-10-01T10:19:10.466Z,98534.98
2022-10-01T10:22:25.030Z,98533.95
2022-10-01T10:25:30.970Z,98539.48
2022-10-01T10:28:46.084Z,98526.61
2022-10-01T10:31:52.343Z,98521.21
2022-10-01T10:35:03.738Z,98518.84
2022-10-01T10:38:20.511Z,98516.38
2022-10-01T10:41:27.419Z,98510.64
2022-10-01T10:44:37.442Z,98500.58
2022-10-01T10:47:49.964Z,98494.13
2022-10-01T10:51:02.720Z,98484.27
2022-10-01T10:54:21.306Z,98486.59
2022-10-01T10:57:30.130Z,98480.71
2022-10-01T11:00:44.937Z,98469.77
2022-10-01T11:03:55.514Z,98461.24
2022-10-01T11:07:02.826Z,98459.21
2022-10-01T11:10:35.494Z,98451.95
2022-10-01T11:13:58.508Z,98444.81
2022-10-01T11:17:28.397Z,98443.94
2022-10-01T11:20:47.563Z,98439.89
2022-10-01T11:24:11.630Z,98435.23
2022-10-01T11:27:26.563Z,98429.14
2022-10-01T11:30:41.032Z,98422.14
2022-10-01T11:33:59.530Z,98417.01
2022-10-01T11:37:18.873Z,98412.87
2022-10-01T11:40:30.144Z,98403.39
2022-10-01T11:43:41.448Z,98401.38
2022-10-01T11:46:54.866Z,98402.13
2022-10-01T11:50:04.316Z,98404.15
2022-10-01T11:53:17.082Z,98406.88
2022-10-01T11:59:50.243Z,98397.88
2022-10-01T12:03:00.930Z,98389.08
2022-10-01T12:06:14.988Z,98390.45
2022-10-01T12:09:26.311Z,98378.80
2022-10-01T12:12:37.160Z,98371.11
2022-10-01T12:15:51.307Z,98367.42
2022-10-01T12:19:03.918Z,98359.02
2022-10-01T12:22:16.243Z,98354.27
2022-10-01T12:25:29.097Z,98343.98
2022-10-01T12:28:55.562Z,98342.35
2022-10-01T12:32:11.746Z,98339.34
2022-10-01T12:35:36.090Z,98337.63
2022-10-01T12:38:55.609Z,98336.36
2022-10-01T12:42:13.051Z,98333.02
2022-10-01T12:45:31.615Z,98331.89
2022-10-01T12:48:47.695Z,98329.81
2022-10-01T12:52:02.116Z,98312.83
2022-10-01T12:55:29.499Z,98312.08
2022-10-01T12:59:08.846Z,98310.38
2022-10-01T13:02:30.556Z,98302.89
2022-10-01T13:05:44.737Z,98300.01
2022-10-01T13:09:02.116Z,98295.30
2022-10-01T13:12:23.348Z,98294.60
2022-10-01T13:15:35.356Z,98292.30
2022-10-01T13:18:54.574Z,98291.42
2022-10-01T13:22:14.625Z,98288.84
2022-10-01T13:25:32.276Z,98283.26
2022-10-01T13:28:53.826Z,98283.23
2022-10-01T13:32:01.338Z,98278.84
2022-10-01T13:35:25.911Z,98268.83
2022-10-01T13:38:41.053Z,98272.76
2022-10-01T13:41:48.156Z,98270.02
2022-10-01T13:44:59.852Z,98271.81
2022-10-01T13:48:14.844Z,98272.91
2022-10-01T13:51:21.685Z,98260.90
2022-10-01T13:54:31.228Z,98262.80
2022-10-01T13:57:39.447Z,98257.48
2022-10-01T14:00:53.720Z,98253.80
2022-10-01T14:04:08.500Z,98241.67
2022-10-01T14:07:22.301Z,98239.30
2022-10-01T14:10:57.956Z,98229.86
2022-10-01T14:14:31.875Z,98227.52
2022-10-01T14:17:39.169Z,98226.86
2022-10-01T14:21:00.276Z,98226.62
2022-10-01T14:24:17.103Z,98224.52
2022-10-01T14:27:30.252Z,98226.27
2022-10-01T14:30:44.258Z,98220.17
2022-10-01T14:34:36.920Z,98212.16
2022-10-01T14:37:43.535Z,98209.23
2022-10-01T14:40:51.403Z,98208.67
2022-10-01T14:43:57.649Z,98210.36
2022-10-01T14:47:13.396Z,98210.36
2022-10-01T14:50:20.367Z,98204.70
2022-10-01T14:53:28.511Z,98192.45
2022-10-01T14:56:35.779Z,98191.98
2022-10-01T14:59:43.584Z,98184.27
2022-10-01T15:02:52.000Z,98182.90
2022-10-01T15:06:12.863Z,98181.55
2022-10-01T15:09:20.873Z,98176.02
2022-10-01T15:12:28.360Z,98172.58
2022-10-01T15:15:41.207Z,98167.45
2022-10-01T15:18:53.546Z,98156.59
2022-10-01T15:22:02.042Z,98154.80
2022-10-01T15:25:17.220Z,98159.40
2022-10-01T15:28:32.098Z,98163.04
2022-10-01T15:31:39.712Z,98165.70
2022-10-01T15:34:49.914Z,98164.56
2022-10-01T15:38:00.792Z,98158.67
2022-10-01T15:41:30.583Z,98157.63
2022-10-01T15:44:51.427Z,98158.34
2022-10-01T15:47:58.231Z,98162.33
2022-10-01T15:51:07.420Z,98160.23
2022-10-01T15:54:17.503Z,98165.52
2022-10-01T15:57:25.897Z,98152.33
2022-10-01T16:00:35.277Z,98154.13
2022-10-01T16:03:49.526Z,98154.39
2022-10-01T16:06:56.070Z,98150.91
2022-10-01T16:10:15.338Z,98152.42
2022-10-01T16:13:42.104Z,98153.52
2022-10-01T16:16:48.536Z,98146.77
2022-10-01T16:19:56.842Z,98142.07
2022-10-01T16:23:37.003Z,98140.30
2022-10-01T16:26:44.436Z,98130.45
2022-10-01T16:30:05.607Z,98136.18
2022-10-01T16:33:13.336Z,98141.14
2022-10-01T16:36:24.195Z,98143.30
2022-10-01T16:39:30.391Z,98141.35
2022-10-01T16:42:37.413Z,98141.98
2022-10-01T16:45:44.065Z,98139.92
2022-10-01T16:48:52.597Z,98137.62
2022-10-01T16:51:59.099Z,98135.98
2022-10-01T16:55:05.415Z,98142.23
2022-10-01T16:58:11.808Z,98152.30
2022-10-01T17:01:17.979Z,98155.02
2022-10-01T17:04:29.225Z,98151.14
2022-10-01T17:07:38.036Z,98149.45
2022-10-01T17:10:47.863Z,98147.05
2022-10-01T17:13:54.361Z,98144.62
2022-10-01T17:17:00.491Z,98145.37
2022-10-01T17:20:05.726Z,98145.62
2022-10-01T17:23:13.948Z,98144.08
2022-10-01T17:26:20.242Z,98140.31
2022-10-01T17:29:26.831Z,98128.81
2022-10-01T17:32:34.107Z,98123.20
2022-10-01T17:35:44.784Z,98131.86
2022-10-01T17:38:50.975Z,98130.73
2022-10-01T17:41:57.819Z,98126.82
2022-10-01T17:45:05.544Z,98124.55
2022-10-01T17:48:12.089Z,98129.21
2022-10-01T17:51:18.515Z,98130.92
2022-10-01T17:54:25.401Z,98136.06
2022-10-01T17:57:31.455Z,98139.04
2022-10-01T18:00:36.034Z,98132.25
2022-10-01T18:03:42.621Z,98127.89
2022-10-01T18:06:49.799Z,98127.89
2022-10-01T18:09:56.202Z,98128.48
2022-10-01T18:13:02.383Z,98122.81
2022-10-01T18:16:14.123Z,98123.16
2022-10-01T18:22:48.796Z,98120.05
2022-10-01T18:25:55.079Z,98119.73
2022-10-01T18:29:01.293Z,98125.86
2022-10-01T18:32:15.398Z,98129.13
2022-10-01T18:35:29.213Z,98122.66
2022-10-01T18:38:38.788Z,98118.18
2022-10-01T18:41:45.503Z,98124.77
2022-10-01T18:44:56.868Z,98131.06
2022-10-01T18:48:16.814Z,98128.19
2022-10-01T18:51:33.412Z,98127.20
2022-10-01T18:55:03.773Z,98120.22
2022-10-01T18:58:33.501Z,98117.48
2022-10-01T19:01:48.671Z,98118.86
2022-10-01T19:05:25.087Z,98116.95
2022-10-01T19:08:52.985Z,98128.64
2022-10-01T19:12:17.174Z,98134.09
2022-10-01T19:15:38.711Z,98128.85
2022-10-01T19:18:58.486Z,98123.55
2022-10-01T19:22:14.965Z,98115.17
2022-10-01T19:25:27.225Z,98114.34
2022-10-01T19:28:49.847Z,98119.57
2022-10-01T19:32:00.154Z,98123.78
2022-10-01T19:35:17.102Z,98130.48
2022-10-01T19:38:29.593Z,98132.98
2022-10-01T19:41:43.344Z,98145.88
2022-10-01T19:45:00.853Z,98166.23
2022-10-01T19:48:15.274Z,98209.11
2022-10-01T19:51:26.147Z,98226.70
2022-10-01T19:54:35.186Z,98220.49
2022-10-01T19:57:44.861Z,98231.85
2022-10-01T20:00:57.122Z,98234.95
2022-10-01T20:04:06.588Z,98237.15
2022-10-01T20:07:18.593Z,98243.73
2022-10-01T20:10:31.596Z,98246.32
2022-10-01T20:13:55.474Z,98244.88
2022-10-01T20:17:04.991Z,98243.81
2022-10-01T20:20:19.039Z,98246.83
2022-10-01T20:23:40.324Z,98248.41
2022-10-01T20:26:53.610Z,98246.09
2022-10-01T20:30:07.034Z,98249.77
2022-10-01T20:33:24.251Z,98253.34
2022-10-01T20:36:38.417Z,98257.35
2022-10-01T20:39:49.589Z,98263.20
2022-10-01T20:43:01.536Z,98267.83
2022-10-01T20:46:11.986Z,98272.46
2022-10-01T20:49:32.543Z,98269.46
2022-10-01T20:52:47.339Z,98274.48
2022-10-01T20:55:57.286Z,98274.91
2022-10-01T20:59:09.569Z,98279.36
2022-10-01T21:02:30.195Z,98283.67
2022-10-01T21:05:42.790Z,98288.14
2022-10-01T21:08:53.712Z,98291.51
2022-10-01T21:12:04.646Z,98287.84
2022-10-01T21:15:14.946Z,98288.80
2022-10-01T21:18:29.471Z,98285.19
2022-10-01T21:21:46.460Z,98282.02
2022-10-01T21:25:02.984Z,98292.46
2022-10-01T21:28:31.740Z,98292.24
2022-10-01T21:31:49.789Z,98297.35
2022-10-01T21:35:07.572Z,98295.67
2022-10-01T21:38:28.630Z,98300.41
2022-10-01T21:41:55.583Z,98297.85
2022-10-01T21:45:14.687Z,98302.09
2022-10-01T21:48:37.905Z,98294.02
2022-10-01T21:51:58.719Z,98280.42
2022-10-01T21:55:17.457Z,98279.55
2022-10-01T21:58:37.216Z,98288.34
2022-10-01T22:02:01.843Z,98287.38
2022-10-01T22:05:23.527Z,98289.08
2022-10-01T22:08:48.455Z,98291.72
2022-10-01T22:11:59.637Z,98296.90
2022-10-01T22:15:14.189Z,98294.80
2022-10-01T22:18:26.201Z,98300.04
2022-10-01T22:21:38.467Z,98298.54
2022-10-01T22:24:50.581Z,98300.80
2022-10-01T22:28:01.601Z,98305.42
2022-10-01T22:31:12.303Z,98305.19
2022-10-01T22:34:23.926Z,98304.98
2022-10-01T22:37:34.502Z,98301.61
2022-10-01T22:40:46.419Z,98307.40
2022-10-01T22:43:52.658Z,98311.08
2022-10-01T22:47:21.957Z,98311.52
2022-10-01T22:50:39.709Z,98315.45
2022-10-01T22:54:03.237Z,98314.73
2022-10-01T22:57:29.754Z,98317.36
2022-10-01T23:00:44.105Z,98321.12
2022-10-01T23:04:09.552Z,98324.83
2022-10-01T23:07:22.208Z,98325.02
2022-10-01T23:10:39.556Z,98323.61
2022-10-01T23:13:53.441Z,98326.75
2022-10-01T23:17:05.615Z,98326.45
2022-10-01T23:20:25.175Z,98324.21
2022-10-01T23:23:34.009Z,98323.38
2022-10-01T23:26:51.402Z,98323.46
2022-10-01T23:30:11.857Z,98319.70
2022-10-01T23:33:32.299Z,98322.63
2022-10-01T23:36:46.347Z,98328.16
2022-10-01T23:39:56.651Z,98334.10
2022-10-01T23:43:10.771Z,98329.30
2022-10-01T23:46:23.399Z,98331.27
2022-10-01T23:49:33.839Z,98333.29
2022-10-01T23:52:46.791Z,98340.55
2022-10-01T23:56:18.115Z,98343.79
2022-10-01T23:59:30.168Z,98350.17
